sensor_id;sensor_type;location;lat;lon;timestamp;P1;durP1;ratioP1;P2;durP2;ratioP2
80241;SDS011;69556;45.004;7.532;2023-08-30T06:59:39;2.97;;;2.00;;
80241;SDS011;69556;45.004;7.532;2023-08-30T07:02:05;2.27;;;1.60;;
80241;SDS011;69556;45.004;7.532;2023-08-30T07:04:30;2.72;;;1.98;;
80241;SDS011;69556;45.004;7.532;2023-08-30T07:06:56;4.72;;;2.08;;
80241;SDS011;69556;45.004;7.532;2023-08-30T07:09:21;3.30;;;1.50;;
80241;SDS011;69556;45.004;7.532;2023-08-30T07:11:53;3.08;;;1.75;;
80241;SDS011;69556;45.004;7.532;2023-08-30T07:14:18;3.07;;;1.80;;
80241;SDS011;69556;45.004;7.532;2023-08-30T07:16:45;3.42;;;1.80;;
80241;SDS011;69556;45.004;7.532;2023-08-30T07:19:10;4.38;;;2.97;;
80241;SDS011;69556;45.004;7.532;2023-08-30T07:21:36;4.00;;;1.80;;
80241;SDS011;69556;45.004;7.532;2023-08-30T07:24:03;2.42;;;1.73;;
80241;SDS011;69556;45.004;7.532;2023-08-30T07:26:30;6.38;;;2.03;;
80241;SDS011;69556;45.004;7.532;2023-08-30T07:28:55;4.85;;;2.03;;
80241;SDS011;69556;45.004;7.532;2023-08-30T07:31:20;2.37;;;1.70;;
80241;SDS011;69556;45.004;7.532;2023-08-30T07:33:46;2.33;;;1.60;;
80241;SDS011;69556;45.004;7.532;2023-08-30T07:36:12;1.88;;;1.50;;
80241;SDS011;69556;45.004;7.532;2023-08-30T07:38:37;2.28;;;1.60;;
80241;SDS011;69556;45.004;7.532;2023-08-30T07:41:02;1.95;;;1.52;;
80241;SDS011;69556;45.004;7.532;2023-08-30T07:43:28;4.32;;;1.80;;
80241;SDS011;69556;45.004;7.532;2023-08-30T07:45:53;3.13;;;1.80;;
80241;SDS011;69556;45.004;7.532;2023-08-30T07:48:19;2.80;;;2.07;;
80241;SDS011;69556;45.004;7.532;2023-08-30T07:50:44;5.38;;;2.30;;
80241;SDS011;69556;45.004;7.532;2023-08-30T07:53:09;7.93;;;2.10;;
80241;SDS011;69556;45.004;7.532;2023-08-30T07:55:35;3.60;;;2.17;;
80241;SDS011;69556;45.004;7.532;2023-08-30T07:58:01;2.08;;;1.55;;
80241;SDS011;69556;45.004;7.532;2023-08-30T08:00:28;4.90;;;1.80;;
80241;SDS011;69556;45.004;7.532;2023-08-30T08:02:53;3.42;;;1.83;;
80241;SDS011;69556;45.004;7.532;2023-08-30T08:05:19;2.50;;;1.77;;
80241;SDS011;69556;45.004;7.532;2023-08-30T08:07:44;2.20;;;1.87;;
80241;SDS011;69556;45.004;7.532;2023-08-30T08:10:09;2.22;;;1.65;;
80241;SDS011;69556;45.004;7.532;2023-08-30T08:12:35;2.35;;;1.75;;
80241;SDS011;69556;45.004;7.532;2023-08-30T08:15:00;2.10;;;1.50;;
80241;SDS011;69556;45.004;7.532;2023-08-30T08:17:26;1.95;;;1.73;;
80241;SDS011;69556;45.004;7.532;2023-08-30T08:19:52;3.17;;;1.90;;
80241;SDS011;69556;45.004;7.532;2023-08-30T08:22:17;3.58;;;2.10;;
80241;SDS011;69556;45.004;7.532;2023-08-30T08:24:43;3.60;;;1.88;;
80241;SDS011;69556;45.004;7.532;2023-08-30T08:27:10;2.50;;;1.65;;
80241;SDS011;69556;45.004;7.532;2023-08-30T08:29:36;5.82;;;1.65;;
80241;SDS011;69556;45.004;7.532;2023-08-30T08:32:02;1.40;;;1.20;;
80241;SDS011;69556;45.004;7.532;2023-08-30T08:34:28;2.70;;;1.67;;
80241;SDS011;69556;45.004;7.532;2023-08-30T08:36:53;5.63;;;1.65;;
80241;SDS011;69556;45.004;7.532;2023-08-30T08:39:18;7.07;;;1.42;;
80241;SDS011;69556;45.004;7.532;2023-08-30T08:41:44;2.47;;;1.67;;
80241;SDS011;69556;45.004;7.532;2023-08-30T08:44:10;3.17;;;1.30;;
80241;SDS011;69556;45.004;7.532;2023-08-30T08:46:37;1.88;;;1.50;;
80241;SDS011;69556;45.004;7.532;2023-08-30T08:49:16;1.75;;;1.38;;
80241;SDS011;69556;45.004;7.532;2023-08-30T08:51:42;7.22;;;3.85;;
80241;SDS011;69556;45.004;7.532;2023-08-30T08:54:09;3.00;;;1.98;;
80241;SDS011;69556;45.004;7.532;2023-08-30T08:56:35;1.45;;;1.23;;
80241;SDS011;69556;45.004;7.532;2023-08-30T08:59:01;1.30;;;1.20;;
80241;SDS011;69556;45.004;7.532;2023-08-30T09:01:27;2.63;;;1.38;;
80241;SDS011;69556;45.004;7.532;2023-08-30T09:03:53;2.67;;;1.60;;
80241;SDS011;69556;45.004;7.532;2023-08-30T09:06:18;5.07;;;1.30;;
80241;SDS011;69556;45.004;7.532;2023-08-30T09:08:44;1.58;;;1.40;;
80241;SDS011;69556;45.004;7.532;2023-08-30T09:11:10;4.80;;;1.67;;
80241;SDS011;69556;45.004;7.532;2023-08-30T09:13:35;1.27;;;1.17;;
80241;SDS011;69556;45.004;7.532;2023-08-30T09:16:01;3.80;;;1.40;;
80241;SDS011;69556;45.004;7.532;2023-08-30T09:18:27;2.88;;;1.30;;
80241;SDS011;69556;45.004;7.532;2023-08-30T09:21:04;2.05;;;1.85;;
80241;SDS011;69556;45.004;7.532;2023-08-30T09:23:31;2.60;;;1.40;;
80241;SDS011;69556;45.004;7.532;2023-08-30T09:25:56;2.08;;;1.38;;
80241;SDS011;69556;45.004;7.532;2023-08-30T09:28:21;1.75;;;1.33;;
80241;SDS011;69556;45.004;7.532;2023-08-30T09:30:50;2.20;;;1.30;;
80241;SDS011;69556;45.004;7.532;2023-08-30T09:33:20;2.35;;;1.23;;
80241;SDS011;69556;45.004;7.532;2023-08-30T09:35:49;3.13;;;1.67;;
80241;SDS011;69556;45.004;7.532;2023-08-30T09:38:18;4.60;;;2.95;;
80241;SDS011;69556;45.004;7.532;2023-08-30T09:40:44;2.33;;;1.67;;
80241;SDS011;69556;45.004;7.532;2023-08-30T09:43:10;1.80;;;1.48;;
80241;SDS011;69556;45.004;7.532;2023-08-30T09:45:36;2.17;;;1.15;;
80241;SDS011;69556;45.004;7.532;2023-08-30T09:48:02;2.42;;;1.60;;
80241;SDS011;69556;45.004;7.532;2023-08-30T09:50:29;1.42;;;1.10;;
80241;SDS011;69556;45.004;7.532;2023-08-30T09:52:59;1.63;;;1.30;;
80241;SDS011;69556;45.004;7.532;2023-08-30T09:55:31;1.30;;;1.08;;
80241;SDS011;69556;45.004;7.532;2023-08-30T09:57:57;3.00;;;1.20;;
80241;SDS011;69556;45.004;7.532;2023-08-30T10:00:22;1.45;;;1.13;;
80241;SDS011;69556;45.004;7.532;2023-08-30T10:02:48;5.75;;;1.40;;
80241;SDS011;69556;45.004;7.532;2023-08-30T10:05:14;1.48;;;1.33;;
80241;SDS011;69556;45.004;7.532;2023-08-30T10:07:40;1.27;;;1.17;;
80241;SDS011;69556;45.004;7.532;2023-08-30T10:10:06;1.38;;;1.20;;
80241;SDS011;69556;45.004;7.532;2023-08-30T10:12:32;1.30;;;1.20;;
80241;SDS011;69556;45.004;7.532;2023-08-30T10:14:57;3.67;;;1.63;;
80241;SDS011;69556;45.004;7.532;2023-08-30T10:17:23;1.05;;;1.00;;
80241;SDS011;69556;45.004;7.532;2023-08-30T10:19:53;1.20;;;1.10;;
80241;SDS011;69556;45.004;7.532;2023-08-30T10:22:18;3.05;;;2.22;;
80241;SDS011;69556;45.004;7.532;2023-08-30T10:24:46;2.45;;;1.00;;
80241;SDS011;69556;45.004;7.532;2023-08-30T10:27:16;1.13;;;1.10;;
80241;SDS011;69556;45.004;7.532;2023-08-30T10:29:42;1.08;;;1.00;;
80241;SDS011;69556;45.004;7.532;2023-08-30T10:34:35;3.50;;;1.00;;
80241;SDS011;69556;45.004;7.532;2023-08-30T10:37:02;1.92;;;1.10;;
80241;SDS011;69556;45.004;7.532;2023-08-30T10:39:35;0.80;;;0.80;;
80241;SDS011;69556;45.004;7.532;2023-08-30T10:42:07;1.05;;;0.98;;
80241;SDS011;69556;45.004;7.532;2023-08-30T10:44:34;0.90;;;0.90;;
80241;SDS011;69556;45.004;7.532;2023-08-30T10:47:01;0.95;;;0.70;;
80241;SDS011;69556;45.004;7.532;2023-08-30T10:49:29;0.93;;;0.93;;
80241;SDS011;69556;45.004;7.532;2023-08-30T10:51:55;0.90;;;0.90;;
80241;SDS011;69556;45.004;7.532;2023-08-30T10:54:35;3.15;;;1.38;;
80241;SDS011;69556;45.004;7.532;2023-08-30T10:57:03;1.25;;;1.10;;
80241;SDS011;69556;45.004;7.532;2023-08-30T10:59:29;2.10;;;1.63;;
80241;SDS011;69556;45.004;7.532;2023-08-30T11:01:55;2.85;;;1.00;;
80241;SDS011;69556;45.004;7.532;2023-08-30T11:04:21;0.93;;;0.93;;
80241;SDS011;69556;45.004;7.532;2023-08-30T11:06:47;0.90;;;0.90;;
80241;SDS011;69556;45.004;7.532;2023-08-30T11:09:14;0.98;;;0.93;;
80241;SDS011;69556;45.004;7.532;2023-08-30T11:11:50;1.00;;;0.75;;
80241;SDS011;69556;45.004;7.532;2023-08-30T11:14:17;0.80;;;0.80;;
80241;SDS011;69556;45.004;7.532;2023-08-30T11:16:43;0.70;;;0.70;;
80241;SDS011;69556;45.004;7.532;2023-08-30T11:19:10;2.17;;;0.82;;
80241;SDS011;69556;45.004;7.532;2023-08-30T11:21:37;3.70;;;1.00;;
80241;SDS011;69556;45.004;7.532;2023-08-30T11:24:05;4.13;;;1.20;;
80241;SDS011;69556;45.004;7.532;2023-08-30T11:26:31;1.15;;;0.82;;
80241;SDS011;69556;45.004;7.532;2023-08-30T11:28:56;1.70;;;0.98;;
80241;SDS011;69556;45.004;7.532;2023-08-30T11:31:23;1.15;;;0.90;;
80241;SDS011;69556;45.004;7.532;2023-08-30T11:33:52;1.52;;;1.25;;
80241;SDS011;69556;45.004;7.532;2023-08-30T11:36:21;1.42;;;0.88;;
80241;SDS011;69556;45.004;7.532;2023-08-30T11:38:47;0.93;;;0.90;;
80241;SDS011;69556;45.004;7.532;2023-08-30T11:41:14;1.58;;;1.00;;
80241;SDS011;69556;45.004;7.532;2023-08-30T11:43:39;0.98;;;0.88;;
80241;SDS011;69556;45.004;7.532;2023-08-30T11:46:05;0.70;;;0.70;;
80241;SDS011;69556;45.004;7.532;2023-08-30T11:48:30;4.38;;;1.17;;
80241;SDS011;69556;45.004;7.532;2023-08-30T11:50:57;1.00;;;1.00;;
80241;SDS011;69556;45.004;7.532;2023-08-30T11:53:23;2.50;;;1.00;;
80241;SDS011;69556;45.004;7.532;2023-08-30T11:55:49;4.55;;;0.90;;
80241;SDS011;69556;45.004;7.532;2023-08-30T11:58:15;0.70;;;0.70;;
80241;SDS011;69556;45.004;7.532;2023-08-30T12:00:40;0.70;;;0.70;;
80241;SDS011;69556;45.004;7.532;2023-08-30T12:03:05;1.70;;;1.00;;
80241;SDS011;69556;45.004;7.532;2023-08-30T12:05:31;1.00;;;0.90;;
80241;SDS011;69556;45.004;7.532;2023-08-30T12:07:59;0.68;;;0.68;;
80241;SDS011;69556;45.004;7.532;2023-08-30T12:10:26;0.75;;;0.73;;
80241;SDS011;69556;45.004;7.532;2023-08-30T12:12:53;0.60;;;0.60;;
80241;SDS011;69556;45.004;7.532;2023-08-30T12:15:19;0.85;;;0.85;;
80241;SDS011;69556;45.004;7.532;2023-08-30T12:17:49;0.90;;;0.90;;
80241;SDS011;69556;45.004;7.532;2023-08-30T12:20:15;0.90;;;0.80;;
80241;SDS011;69556;45.004;7.532;2023-08-30T12:22:42;2.28;;;0.68;;
80241;SDS011;69556;45.004;7.532;2023-08-30T12:25:17;0.82;;;0.82;;
80241;SDS011;69556;45.004;7.532;2023-08-30T12:27:44;0.70;;;0.70;;
80241;SDS011;69556;45.004;7.532;2023-08-30T12:30:09;2.47;;;0.95;;
80241;SDS011;69556;45.004;7.532;2023-08-30T12:32:35;2.33;;;0.98;;
80241;SDS011;69556;45.004;7.532;2023-08-30T12:35:00;0.77;;;0.77;;
80241;SDS011;69556;45.004;7.532;2023-08-30T12:37:25;0.87;;;0.87;;
80241;SDS011;69556;45.004;7.532;2023-08-30T12:39:51;0.90;;;0.90;;
80241;SDS011;69556;45.004;7.532;2023-08-30T12:42:16;0.60;;;0.60;;
80241;SDS011;69556;45.004;7.532;2023-08-30T12:44:41;0.80;;;0.80;;
80241;SDS011;69556;45.004;7.532;2023-08-30T12:47:07;1.93;;;0.70;;
80241;SDS011;69556;45.004;7.532;2023-08-30T12:49:32;0.87;;;0.37;;
80241;SDS011;69556;45.004;7.532;2023-08-30T12:51:57;0.87;;;0.87;;
80241;SDS011;69556;45.004;7.532;2023-08-30T12:54:22;0.90;;;0.90;;
80241;SDS011;69556;45.004;7.532;2023-08-30T12:56:48;0.70;;;0.70;;
80241;SDS011;69556;45.004;7.532;2023-08-30T12:59:13;1.40;;;0.80;;
80241;SDS011;69556;45.004;7.532;2023-08-30T13:01:38;4.17;;;0.90;;
80241;SDS011;69556;45.004;7.532;2023-08-30T13:04:04;0.60;;;0.60;;
80241;SDS011;69556;45.004;7.532;2023-08-30T13:06:29;0.88;;;0.88;;
80241;SDS011;69556;45.004;7.532;2023-08-30T13:08:54;1.10;;;1.03;;
80241;SDS011;69556;45.004;7.532;2023-08-30T13:11:20;0.77;;;0.77;;
80241;SDS011;69556;45.004;7.532;2023-08-30T13:13:45;1.00;;;0.90;;
80241;SDS011;69556;45.004;7.532;2023-08-30T13:16:11;0.80;;;0.80;;
80241;SDS011;69556;45.004;7.532;2023-08-30T13:18:36;2.63;;;1.00;;
80241;SDS011;69556;45.004;7.532;2023-08-30T13:21:01;1.80;;;1.13;;
80241;SDS011;69556;45.004;7.532;2023-08-30T13:23:27;0.82;;;0.82;;
